Time;durP1;ratioP1;P1;durP2;ratioP2;P2;SDS_P1;SDS_P2;PMS_P1;PMS_P2;Temp;Humidity;BMP_temperature;BMP_pressure;BME280_temperature;BME280_humidity;BME280_pressure;Samples;Min_cycle;Max_cycle;Signal;HPM_P1;HPM_P2
2023/10/28 00:00:29;;;;;;;6.63;4.63;;;;;;;7.90;78.30;97533.09;5023724;28;20059;-46
2023/10/28 00:02:56;;;;;;;10.82;5.50;;;;;;;7.90;78.59;97525.34;5020611;28;20052;-44
2023/10/28 00:05:24;;;;;;;10.63;5.93;;;;;;;7.88;78.71;97522.00;5027749;28;20064;-52
2023/10/28 00:07:51;;;;;;;11.18;4.72;;;;;;;7.90;78.62;97520.19;5028626;28;20049;-45
2023/10/28 00:10:18;;;;;;;11.85;4.50;;;;;;;7.89;79.51;97505.63;5026119;28;20160;-45
2023/10/28 00:12:45;;;;;;;9.68;3.70;;;;;;;7.89;78.35;97508.22;5027179;28;20045;-42
2023/10/28 00:15:13;;;;;;;12.43;6.82;;;;;;;7.90;78.62;97511.66;5021261;28;20042;-43
2023/10/28 00:17:40;;;;;;;6.10;4.32;;;;;;;7.90;78.19;97509.88;5027739;28;20080;-50
2023/10/28 00:20:08;;;;;;;7.75;3.92;;;;;;;7.91;78.54;97509.00;5024287;28;20048;-46
2023/10/28 00:22:35;;;;;;;11.40;5.05;;;;;;;7.92;78.70;97505.53;5022707;28;20141;-50
2023/10/28 00:25:02;;;;;;;6.95;5.10;;;;;;;7.94;78.26;97506.31;5058894;28;20049;-49
2023/10/28 00:27:30;;;;;;;11.43;4.82;;;;;;;7.95;79.67;97502.00;5027360;28;20053;-47
2023/10/28 00:29:56;;;;;;;10.85;5.43;;;;;;;7.95;78.64;97502.88;5026463;28;20049;-49
2023/10/28 00:32:23;;;;;;;12.63;5.63;;;;;;;7.96;79.02;97498.53;5027256;28;20495;-45
2023/10/28 00:34:50;;;;;;;9.25;4.75;;;;;;;7.95;78.88;97492.56;5023509;28;20037;-47
2023/10/28 00:37:17;;;;;;;8.27;5.13;;;;;;;7.96;79.47;97498.53;5026369;28;20045;-47
2023/10/28 00:39:44;;;;;;;13.27;5.13;;;;;;;7.94;78.66;97493.44;5020980;28;20057;-47
2023/10/28 00:42:13;;;;;;;9.68;5.38;;;;;;;7.95;78.39;97491.69;5022845;28;20057;-45
2023/10/28 00:44:40;;;;;;;11.68;5.22;;;;;;;7.94;78.63;97490.84;5029331;28;20049;-47
2023/10/28 00:47:06;;;;;;;10.77;4.90;;;;;;;7.93;79.35;97489.16;5030417;28;20049;-46
2023/10/28 00:49:34;;;;;;;11.60;5.22;;;;;;;7.91;79.31;97482.38;5026060;28;20137;-56
2023/10/28 00:52:01;;;;;;;11.25;5.78;;;;;;;7.90;79.25;97478.97;5028678;28;20056;-50
2023/10/28 00:54:28;;;;;;;12.45;4.80;;;;;;;7.91;78.24;97480.63;5028965;28;20061;-48
2023/10/28 00:56:57;;;;;;;11.35;5.22;;;;;;;7.91;78.52;97469.50;5021048;28;20523;-43
2023/10/28 00:59:23;;;;;;;11.43;5.78;;;;;;;7.90;79.32;97466.06;5032258;28;20038;-45
2023/10/28 01:01:51;;;;;;;7.60;3.40;;;;;;;7.87;79.08;97466.16;5026956;28;20449;-48
2023/10/28 01:04:18;;;;;;;11.20;3.72;;;;;;;7.84;78.89;97463.72;5027503;28;20493;-48
2023/10/28 01:06:46;;;;;;;13.38;5.57;;;;;;;7.82;78.32;97461.19;5027698;28;20045;-53
2023/10/28 01:09:12;;;;;;;10.85;5.22;;;;;;;7.81;78.99;97461.25;5029559;28;20049;-47
2023/10/28 01:11:39;;;;;;;9.85;5.07;;;;;;;7.79;79.64;97453.56;5027928;28;20068;-47
2023/10/28 01:14:06;;;;;;;14.02;6.50;;;;;;;7.78;79.36;97454.47;5027386;28;20095;-47
2023/10/28 01:16:34;;;;;;;8.15;4.40;;;;;;;7.76;79.60;97451.06;5028949;28;20099;-47
2023/10/28 01:19:01;;;;;;;8.23;4.88;;;;;;;7.74;79.97;97452.03;5026439;28;20045;-48
2023/10/28 01:21:27;;;;;;;10.38;5.93;;;;;;;7.72;79.22;97450.34;5028283;28;20123;-49
2023/10/28 01:23:56;;;;;;;11.20;6.07;;;;;;;7.72;79.96;97449.50;5026538;28;20049;-50
2023/10/28 01:26:22;;;;;;;9.13;5.93;;;;;;;7.71;79.63;97446.06;5026826;28;20049;-49
2023/10/28 01:28:49;;;;;;;11.02;5.75;;;;;;;7.74;79.45;97446.88;5024694;28;20041;-50
2023/10/28 01:31:17;;;;;;;12.82;4.90;;;;;;;7.75;79.87;97446.81;5026391;28;20080;-49
2023/10/28 01:33:44;;;;;;;12.65;6.20;;;;;;;7.77;79.30;97441.63;5029376;28;20041;-47
2023/10/28 01:36:10;;;;;;;10.13;6.40;;;;;;;7.81;79.78;97443.19;5025894;28;20053;-45
2023/10/28 01:38:37;;;;;;;10.50;5.55;;;;;;;7.84;80.20;97432.78;5029830;28;20052;-42
2023/10/28 01:41:04;;;;;;;9.95;5.82;;;;;;;7.88;79.54;97438.69;5029232;28;20506;-51
2023/10/28 01:43:30;;;;;;;13.40;6.38;;;;;;;7.91;79.81;97438.56;5025628;28;20124;-47
2023/10/28 01:45:57;;;;;;;10.98;6.47;;;;;;;7.95;79.15;97443.59;5027735;28;20045;-48
2023/10/28 01:48:24;;;;;;;13.38;6.82;;;;;;;8.00;80.09;97442.59;5027443;28;20053;-47
2023/10/28 01:50:51;;;;;;;14.05;5.10;;;;;;;8.04;79.71;97449.31;5017756;28;20037;-46
2023/10/28 01:53:18;;;;;;;11.77;4.78;;;;;;;8.05;79.71;97441.53;5025063;28;20045;-55
2023/10/28 01:55:45;;;;;;;13.20;5.15;;;;;;;8.07;79.77;97439.72;5028123;28;20383;-55
2023/10/28 01:58:11;;;;;;;14.65;4.97;;;;;;;8.10;79.74;97436.19;5027223;28;20065;-50
2023/10/28 02:00:38;;;;;;;11.27;5.43;;;;;;;8.10;79.82;97433.63;5028768;28;20042;-45
2023/10/28 02:03:08;;;;;;;14.70;5.10;;;;;;;8.13;79.49;97433.50;5016031;28;20053;-46
2023/10/28 02:05:35;;;;;;;12.52;6.05;;;;;;;8.15;79.50;97424.00;5027845;28;20131;-44
2023/10/28 02:08:03;;;;;;;12.40;6.07;;;;;;;8.17;80.14;97414.47;5025499;28;20076;-45
2023/10/28 02:10:30;;;;;;;12.35;5.68;;;;;;;8.19;79.07;97412.69;5027441;28;20045;-49
2023/10/28 02:12:57;;;;;;;12.48;8.30;;;;;;;8.22;79.29;97415.16;5027177;28;20057;-49
2023/10/28 02:15:23;;;;;;;11.98;6.28;;;;;;;8.23;79.72;97411.69;5025766;28;20138;-50
2023/10/28 02:17:50;;;;;;;13.77;5.85;;;;;;;8.27;79.74;97419.31;5024734;28;20549;-46
2023/10/28 02:20:17;;;;;;;13.70;5.88;;;;;;;8.30;79.29;97414.03;5023899;28;20093;-48
2023/10/28 02:22:43;;;;;;;13.10;6.18;;;;;;;8.31;79.11;97411.38;5024996;28;20046;-47
2023/10/28 02:25:10;;;;;;;17.67;6.88;;;;;;;8.33;79.69;97413.91;5023930;28;20041;-45
2023/10/28 02:27:37;;;;;;;14.13;5.65;;;;;;;8.34;79.16;97407.84;5026390;28;20498;-44
2023/10/28 02:30:07;;;;;;;12.75;6.20;;;;;;;8.36;79.52;97408.66;5028445;28;20060;-47
2023/10/28 02:32:34;;;;;;;10.27;5.53;;;;;;;8.36;79.98;97417.25;5027595;28;20056;-43
2023/10/28 02:35:00;;;;;;;12.80;4.13;;;;;;;8.39;79.42;97407.69;5022852;28;20469;-48
2023/10/28 02:37:27;;;;;;;15.02;6.22;;;;;;;8.42;79.63;97411.03;5026540;28;20114;-53
2023/10/28 02:39:54;;;;;;;14.35;6.25;;;;;;;8.44;79.83;97405.81;5028841;28;20422;-51
2023/10/28 02:42:22;;;;;;;17.02;7.35;;;;;;;8.46;79.58;97404.84;5025110;28;20050;-50
2023/10/28 02:44:50;;;;;;;13.65;6.43;;;;;;;8.49;80.09;97399.56;5012492;28;20056;-54
2023/10/28 02:47:16;;;;;;;17.27;6.97;;;;;;;8.53;79.45;97396.88;5026295;28;20132;-50
2023/10/28 02:49:43;;;;;;;18.52;4.90;;;;;;;8.56;79.51;97396.78;5023294;28;20442;-45
2023/10/28 02:52:10;;;;;;;18.40;6.18;;;;;;;8.58;80.19;97392.44;5028077;28;20053;-44
2023/10/28 02:54:38;;;;;;;16.42;6.70;;;;;;;8.59;80.50;97396.69;5027787;28;20041;-45
2023/10/28 02:57:04;;;;;;;16.38;6.40;;;;;;;8.61;80.13;97394.88;5026518;28;20046;-42
2023/10/28 02:59:31;;;;;;;17.40;6.30;;;;;;;8.61;80.64;97397.44;5026924;28;20045;-48
2023/10/28 03:01:57;;;;;;;15.05;5.95;;;;;;;8.63;80.64;97395.66;5027962;28;20052;-44
2023/10/28 03:04:24;;;;;;;16.73;4.82;;;;;;;8.63;80.14;97385.34;5025062;28;20435;-46
2023/10/28 03:06:52;;;;;;;20.48;6.57;;;;;;;8.63;80.56;97387.91;5022186;28;20049;-51
2023/10/28 03:09:19;;;;;;;15.20;6.90;;;;;;;8.65;80.38;97387.88;5026285;28;20518;-44
2023/10/28 03:11:45;;;;;;;15.13;6.13;;;;;;;8.68;80.39;97395.50;5026893;28;20558;-49
2023/10/28 03:14:12;;;;;;;12.38;6.53;;;;;;;8.68;80.46;97391.16;5022371;28;20545;-45
2023/10/28 03:16:39;;;;;;;18.83;6.10;;;;;;;8.72;80.31;97389.31;5021583;28;20037;-48
2023/10/28 03:19:06;;;;;;;14.73;7.70;;;;;;;8.76;80.76;97390.03;5022100;28;20038;-43
2023/10/28 03:21:32;;;;;;;18.45;5.75;;;;;;;8.77;80.28;97386.53;5028010;28;20049;-44
2023/10/28 03:23:59;;;;;;;16.70;6.38;;;;;;;8.80;80.84;97391.59;5028083;28;20546;-47
2023/10/28 03:26:25;;;;;;;15.93;6.75;;;;;;;8.84;80.80;97395.72;5027947;28;20045;-43
2023/10/28 03:28:52;;;;;;;15.68;6.80;;;;;;;8.87;80.84;97399.06;5026725;28;20498;-46
2023/10/28 03:31:19;;;;;;;15.40;7.07;;;;;;;8.90;80.76;97387.78;5027425;28;20392;-52
2023/10/28 03:33:48;;;;;;;9.30;5.15;;;;;;;8.89;80.56;97387.81;5027753;28;20053;-49
2023/10/28 03:36:15;;;;;;;14.98;5.75;;;;;;;8.91;80.80;97384.28;5027618;28;20052;-43
2023/10/28 03:38:41;;;;;;;15.73;6.40;;;;;;;8.93;80.71;97379.06;5027536;28;20057;-50
2023/10/28 03:41:09;;;;;;;14.35;6.60;;;;;;;8.94;80.88;97379.00;5026714;28;20053;-46
2023/10/28 03:43:37;;;;;;;13.88;5.90;;;;;;;8.96;80.80;97374.63;5024178;28;20073;-48
2023/10/28 03:46:04;;;;;;;14.77;7.57;;;;;;;8.97;81.22;97378.88;5027328;28;20048;-50
2023/10/28 03:48:31;;;;;;;18.08;6.90;;;;;;;8.99;81.23;97376.25;5027915;28;20046;-52
2023/10/28 03:51:00;;;;;;;15.35;4.40;;;;;;;9.02;81.48;97383.03;5027174;28;20630;-50
2023/10/28 03:53:27;;;;;;;12.98;7.03;;;;;;;9.05;81.30;97377.75;5027929;28;20046;-48
2023/10/28 03:55:54;;;;;;;21.95;6.65;;;;;;;9.06;81.16;97387.16;5026555;28;20053;-46
2023/10/28 03:58:22;;;;;;;14.32;6.28;;;;;;;9.07;81.82;97383.69;5028091;28;20056;-49
2023/10/28 04:00:54;;;;;;;14.77;4.50;;;;;;;9.09;81.35;97387.06;5006484;28;20473;-42
2023/10/28 04:03:21;;;;;;;21.85;6.45;;;;;;;9.10;81.08;97383.56;5027248;28;20041;-48
2023/10/28 04:05:49;;;;;;;16.90;6.55;;;;;;;9.13;81.34;97383.44;5027973;28;20072;-50
2023/10/28 04:08:16;;;;;;;20.77;6.90;;;;;;;9.16;81.67;97388.50;5026595;28;20523;-46
2023/10/28 04:10:43;;;;;;;22.83;6.65;;;;;;;9.19;81.25;97387.53;5025711;28;20116;-49
2023/10/28 04:13:12;;;;;;;19.73;6.72;;;;;;;9.21;81.64;97385.69;5026961;28;20502;-44
2023/10/28 04:15:39;;;;;;;17.15;6.45;;;;;;;9.23;81.02;97384.72;5023979;28;20046;-46
2023/10/28 04:18:06;;;;;;;16.20;6.22;;;;;;;9.23;81.37;97392.47;5024886;28;20053;-46
2023/10/28 04:20:34;;;;;;;13.45;5.78;;;;;;;9.24;81.08;97394.19;5030593;28;20104;-49
2023/10/28 04:23:01;;;;;;;15.60;5.97;;;;;;;9.26;81.41;97392.38;5031300;28;20069;-46
2023/10/28 04:25:28;;;;;;;20.75;6.13;;;;;;;9.28;81.65;97381.16;5030881;28;20049;-47
2023/10/28 04:27:55;;;;;;;11.95;5.35;;;;;;;9.28;81.58;97386.31;5030439;28;20056;-49
2023/10/28 04:30:21;;;;;;;12.02;6.07;;;;;;;9.28;81.75;97386.31;5030554;28;20045;-47
2023/10/28 04:32:48;;;;;;;12.23;5.85;;;;;;;9.30;81.67;97379.34;5031432;28;20384;-46
2023/10/28 04:35:15;;;;;;;16.75;5.55;;;;;;;9.31;81.84;97378.44;5027170;28;20060;-51
2023/10/28 04:37:54;;;;;;;15.23;6.60;;;;;;;9.33;81.52;97376.63;5029330;28;20053;-49
2023/10/28 04:40:21;;;;;;;20.80;5.38;;;;;;;9.35;81.62;97373.09;5028860;28;20133;-47
2023/10/28 04:42:48;;;;;;;16.05;7.07;;;;;;;9.38;81.36;97372.09;5029288;28;20453;-47
2023/10/28 04:45:15;;;;;;;16.20;6.05;;;;;;;9.42;81.45;97373.66;5027460;28;20724;-48
2023/10/28 04:47:42;;;;;;;14.30;5.30;;;;;;;9.42;81.94;97373.66;5028319;28;20053;-49
2023/10/28 04:50:09;;;;;;;14.02;5.55;;;;;;;9.44;81.87;97366.69;5030475;28;20045;-44
2023/10/28 04:52:36;;;;;;;13.85;5.45;;;;;;;9.45;81.76;97368.38;5030182;28;20053;-43
2023/10/28 04:55:03;;;;;;;11.45;5.22;;;;;;;9.47;81.79;97370.91;5030753;28;20410;-45
2023/10/28 04:57:29;;;;;;;21.40;5.28;;;;;;;9.49;81.62;97375.09;5029718;28;20057;-52
2023/10/28 04:59:56;;;;;;;12.65;4.32;;;;;;;9.52;81.37;97374.13;5031400;28;20214;-51
2023/10/28 05:02:23;;;;;;;13.45;5.18;;;;;;;9.52;81.65;97364.63;5025239;28;20132;-45
2023/10/28 05:04:49;;;;;;;14.27;5.43;;;;;;;9.54;82.13;97376.66;5024439;28;20055;-49
2023/10/28 05:07:16;;;;;;;17.40;5.53;;;;;;;9.56;82.07;97374.84;5025783;28;20127;-44
2023/10/28 05:09:43;;;;;;;11.98;5.45;;;;;;;9.56;82.01;97385.19;5028153;28;20045;-47
2023/10/28 05:12:10;;;;;;;10.95;5.50;;;;;;;9.57;81.91;97377.38;5030060;28;20108;-47
2023/10/28 05:14:36;;;;;;;19.23;5.45;;;;;;;9.58;81.93;97367.84;5031009;28;20045;-45
2023/10/28 05:17:03;;;;;;;20.95;5.78;;;;;;;9.58;82.19;97383.38;5029499;28;20052;-43
2023/10/28 05:19:30;;;;;;;16.73;5.63;;;;;;;9.59;82.34;97385.06;5027858;28;20050;-47
2023/10/28 05:22:01;;;;;;;12.20;6.07;;;;;;;9.62;81.80;97379.75;5027109;28;20053;-47
2023/10/28 05:24:29;;;;;;;17.73;6.40;;;;;;;9.61;82.51;97380.66;5026364;28;20053;-47
2023/10/28 05:26:57;;;;;;;19.10;5.70;;;;;;;9.63;82.49;97381.44;5028829;28;20415;-49
2023/10/28 05:29:24;;;;;;;18.02;7.18;;;;;;;9.64;82.45;97383.97;5027864;28;20038;-47
2023/10/28 05:31:51;;;;;;;20.40;4.30;;;;;;;9.65;82.04;97384.78;5029763;28;20594;-52
2023/10/28 05:34:19;;;;;;;14.63;5.70;;;;;;;9.66;82.04;97381.28;5031115;28;20045;-45
2023/10/28 05:36:45;;;;;;;21.13;6.93;;;;;;;9.66;82.25;97390.81;5029252;28;20061;-51
2023/10/28 05:39:12;;;;;;;12.23;3.42;;;;;;;9.66;82.50;97390.81;5026885;28;20553;-47
2023/10/28 05:41:39;;;;;;;20.33;5.82;;;;;;;9.67;82.78;97390.75;5030068;28;20053;-49
2023/10/28 05:44:05;;;;;;;19.05;5.63;;;;;;;9.68;82.72;97387.25;5029459;28;20060;-44
2023/10/28 05:46:32;;;;;;;17.80;6.22;;;;;;;9.68;83.01;97395.00;5028298;28;20099;-51
2023/10/28 05:49:00;;;;;;;16.25;4.65;;;;;;;9.67;82.34;97383.00;5029326;28;20069;-48
2023/10/28 05:51:27;;;;;;;12.80;5.80;;;;;;;9.69;82.36;97390.69;5028304;28;20068;-46
2023/10/28 05:53:54;;;;;;;15.02;5.32;;;;;;;9.70;82.26;97376.84;5027482;28;20048;-42
2023/10/28 05:56:21;;;;;;;17.45;5.05;;;;;;;9.72;82.21;97381.03;5026719;28;20053;-50
2023/10/28 05:58:48;;;;;;;12.90;4.45;;;;;;;9.75;82.33;97395.59;5029250;28;20050;-48
2023/10/28 06:01:14;;;;;;;14.55;4.78;;;;;;;9.74;82.53;97384.41;5026868;28;20465;-43
2023/10/28 06:03:41;;;;;;;16.95;4.85;;;;;;;9.74;82.14;97384.41;5026019;28;20050;-48
2023/10/28 06:06:08;;;;;;;9.57;4.20;;;;;;;9.73;82.84;97393.06;5029467;28;20050;-44
2023/10/28 06:08:35;;;;;;;7.95;3.22;;;;;;;9.74;82.14;97394.75;5026296;28;20049;-46
2023/10/28 06:11:02;;;;;;;10.85;4.20;;;;;;;9.75;82.79;97396.44;5029011;28;20053;-53
2023/10/28 06:13:29;;;;;;;8.50;3.55;;;;;;;9.76;82.35;97397.25;5029365;28;20045;-47
2023/10/28 06:15:56;;;;;;;8.98;3.80;;;;;;;9.76;82.00;97390.34;5029368;28;20410;-46
2023/10/28 06:18:22;;;;;;;8.98;4.00;;;;;;;9.76;82.04;97392.09;5028552;28;20045;-45
2023/10/28 06:20:49;;;;;;;6.72;3.90;;;;;;;9.76;82.49;97386.91;5029329;28;20115;-48
2023/10/28 06:23:15;;;;;;;9.20;4.38;;;;;;;9.77;82.34;97389.44;5028834;28;20045;-41
2023/10/28 06:25:42;;;;;;;5.60;3.15;;;;;;;9.77;82.53;97384.25;5028516;28;20050;-48
2023/10/28 06:28:10;;;;;;;8.05;3.13;;;;;;;9.77;82.42;97384.25;5023841;28;20948;-47
2023/10/28 06:30:46;;;;;;;5.30;3.92;;;;;;;9.77;82.49;97376.50;5027564;28;20557;-48
2023/10/28 06:33:13;;;;;;;9.32;3.88;;;;;;;9.81;82.24;97378.97;5027037;28;20088;-43
2023/10/28 06:35:40;;;;;;;8.85;3.30;;;;;;;9.82;82.42;97384.06;5026263;28;20042;-48
2023/10/28 06:38:07;;;;;;;6.57;2.97;;;;;;;9.85;82.69;97385.69;5026838;28;20045;-52
2023/10/28 06:40:37;;;;;;;8.15;4.07;;;;;;;9.87;82.73;97383.91;5021107;28;20091;-47
2023/10/28 06:43:04;;;;;;;5.70;2.88;;;;;;;9.88;82.98;97382.97;5025376;28;20045;-48
2023/10/28 06:45:31;;;;;;;7.93;3.40;;;;;;;9.87;82.31;97389.06;5054497;28;20045;-47
2023/10/28 06:47:58;;;;;;;6.38;3.00;;;;;;;9.89;82.33;97397.56;5021598;28;20084;-48
2023/10/28 06:50:25;;;;;;;7.47;3.20;;;;;;;9.90;82.49;97399.28;5025416;28;20045;-49
2023/10/28 06:52:51;;;;;;;4.45;2.70;;;;;;;9.91;82.32;97403.53;5025016;28;20045;-47
2023/10/28 06:55:18;;;;;;;7.95;3.28;;;;;;;9.92;82.81;97407.78;5017100;28;20053;-44
2023/10/28 06:57:45;;;;;;;7.40;2.70;;;;;;;9.93;82.47;97406.88;5026130;28;20279;-45
2023/10/28 07:00:13;;;;;;;4.47;1.98;;;;;;;9.94;82.91;97406.00;5024167;28;20434;-47
2023/10/28 07:02:41;;;;;;;7.32;3.50;;;;;;;9.97;82.57;97402.44;5055238;28;20057;-43
2023/10/28 07:05:09;;;;;;;6.13;3.40;;;;;;;9.98;82.63;97398.94;5024086;28;20084;-44
2023/10/28 07:07:37;;;;;;;7.40;4.10;;;;;;;10.00;82.31;97410.88;5022016;28;20506;-51
2023/10/28 07:10:05;;;;;;;6.97;3.53;;;;;;;10.01;82.19;97407.41;5021443;28;20050;-44
2023/10/28 07:12:32;;;;;;;9.13;3.28;;;;;;;10.02;83.03;97403.06;5025304;28;20049;-52
2023/10/28 07:14:59;;;;;;;8.68;3.25;;;;;;;10.03;82.93;97413.34;5026550;28;20411;-45
2023/10/28 07:17:26;;;;;;;8.45;3.50;;;;;;;10.06;82.95;97411.56;5023817;28;20137;-48
2023/10/28 07:19:53;;;;;;;13.00;4.03;;;;;;;10.08;82.27;97407.13;5023432;28;20049;-52
2023/10/28 07:22:20;;;;;;;6.28;3.22;;;;;;;10.09;82.44;97419.16;5025771;28;20150;-48
2023/10/28 07:24:47;;;;;;;5.30;2.95;;;;;;;10.09;82.68;97420.00;5022158;28;20095;-48
2023/10/28 07:27:14;;;;;;;5.85;3.60;;;;;;;10.11;82.89;97425.13;5026432;28;20041;-52
2023/10/28 07:29:40;;;;;;;8.75;3.90;;;;;;;10.13;82.33;97428.47;5034454;28;20045;-48
2023/10/28 07:32:09;;;;;;;7.00;3.72;;;;;;;10.16;83.02;97441.25;5019830;28;20049;-50
2023/10/28 07:34:36;;;;;;;8.90;3.92;;;;;;;10.17;82.90;97435.22;5021909;28;20052;-51
2023/10/28 07:37:03;;;;;;;8.00;4.18;;;;;;;10.18;82.60;97442.06;5017622;28;20046;-49
2023/10/28 07:39:31;;;;;;;7.05;2.35;;;;;;;10.18;83.23;97447.22;5021573;28;20473;-50
2023/10/28 07:41:58;;;;;;;5.90;3.95;;;;;;;10.16;82.84;97441.25;5025085;28;20069;-45
2023/10/28 07:44:25;;;;;;;8.23;3.30;;;;;;;10.14;82.88;97445.69;5027240;28;20049;-44
2023/10/28 07:46:52;;;;;;;14.35;5.10;;;;;;;10.15;82.55;97445.63;5027219;28;20046;-42
2023/10/28 07:49:19;;;;;;;10.10;3.90;;;;;;;10.16;82.63;97457.63;5027534;28;20049;-43
2023/10/28 07:51:46;;;;;;;12.27;4.85;;;;;;;10.18;83.28;97454.13;5024952;28;20049;-46
2023/10/28 07:54:14;;;;;;;9.85;4.85;;;;;;;10.20;83.36;97470.44;5030262;28;20107;-48
2023/10/28 07:56:42;;;;;;;10.73;5.28;;;;;;;10.22;83.48;97466.03;5029122;28;20049;-47
2023/10/28 07:59:10;;;;;;;10.73;3.95;;;;;;;10.24;83.34;97470.22;5031549;28;20489;-51
2023/10/28 08:01:39;;;;;;;16.65;6.82;;;;;;;10.27;83.29;97472.69;5028116;28;20049;-52
2023/10/28 08:04:06;;;;;;;11.30;4.65;;;;;;;10.29;83.48;97463.13;5031238;28;20042;-53
2023/10/28 08:06:34;;;;;;;7.93;5.10;;;;;;;10.33;82.95;97463.81;5031161;28;20049;-46
2023/10/28 08:09:05;;;;;;;7.82;4.40;;;;;;;10.34;82.81;97460.31;5023111;28;20050;-45
2023/10/28 08:11:33;;;;;;;7.45;4.22;;;;;;;10.39;83.30;97462.72;5026860;28;20052;-47
2023/10/28 08:14:00;;;;;;;13.57;4.68;;;;;;;10.38;82.55;97461.03;5028690;28;20487;-46
2023/10/28 08:16:27;;;;;;;9.52;4.32;;;;;;;10.40;83.26;97454.03;5028340;28;20059;-46
2023/10/28 08:18:54;;;;;;;14.32;4.95;;;;;;;10.41;83.13;97466.09;5030963;28;20046;-48
2023/10/28 08:21:22;;;;;;;8.75;4.47;;;;;;;10.44;82.93;97465.97;5025876;28;20072;-48
2023/10/28 08:23:49;;;;;;;9.63;3.70;;;;;;;10.44;82.69;97460.78;5029126;28;20056;-52
2023/10/28 08:26:18;;;;;;;4.68;3.42;;;;;;;10.47;83.08;97460.66;5026041;28;20041;-46
2023/10/28 08:28:46;;;;;;;9.35;2.97;;;;;;;10.49;83.48;97463.19;5021627;28;20049;-46
2023/10/28 08:31:13;;;;;;;8.95;4.60;;;;;;;10.53;83.69;97454.38;5016291;28;20103;-49
2023/10/28 08:33:41;;;;;;;10.02;3.97;;;;;;;10.59;82.59;97454.09;5029207;28;20042;-49
2023/10/28 08:36:09;;;;;;;7.63;4.88;;;;;;;10.69;83.18;97459.72;5024064;28;20054;-49
2023/10/28 08:38:37;;;;;;;19.90;5.25;;;;;;;10.76;82.82;97463.72;5025310;28;20049;-50
2023/10/28 08:41:05;;;;;;;11.95;4.60;;;;;;;10.83;82.93;97455.66;5023614;28;20050;-48
2023/10/28 08:43:33;;;;;;;8.80;3.17;;;;;;;10.86;82.40;97460.69;5027610;28;20049;-47
2023/10/28 08:46:02;;;;;;;6.68;3.10;;;;;;;10.87;82.32;97463.22;5026911;28;20050;-48
2023/10/28 08:48:30;;;;;;;9.70;3.88;;;;;;;10.88;83.43;97469.25;5024862;28;20064;-45
2023/10/28 08:51:00;;;;;;;5.22;3.15;;;;;;;10.91;82.11;97472.53;5027170;28;20139;-45
2023/10/28 08:53:27;;;;;;;5.25;2.95;;;;;;;10.92;82.67;97471.59;5027614;28;20057;-52
2023/10/28 08:55:54;;;;;;;4.82;3.35;;;;;;;10.92;81.88;97486.31;5030678;28;20053;-50
2023/10/28 08:58:21;;;;;;;10.20;3.70;;;;;;;10.90;82.21;97482.94;5029179;28;20072;-47
2023/10/28 09:00:50;;;;;;;4.47;1.65;;;;;;;10.88;82.31;97479.59;5029352;28;20537;-49
2023/10/28 09:03:22;;;;;;;4.97;3.72;;;;;;;10.88;82.28;97475.25;5025859;28;20092;-47
2023/10/28 09:05:52;;;;;;;7.97;4.65;;;;;;;10.88;82.55;97471.84;5025368;28;20534;-51
2023/10/28 09:08:20;;;;;;;7.78;3.72;;;;;;;10.92;82.56;97471.59;5027557;28;20521;-47
2023/10/28 09:10:48;;;;;;;8.18;4.00;;;;;;;10.96;82.34;97467.13;5028074;28;20041;-44
2023/10/28 09:13:15;;;;;;;9.63;2.00;;;;;;;11.02;82.66;97476.38;5023764;28;20859;-46
2023/10/28 09:15:42;;;;;;;7.32;3.20;;;;;;;11.07;82.64;97478.75;5023061;28;20139;-49
2023/10/28 09:18:09;;;;;;;7.65;3.60;;;;;;;11.13;83.43;97478.47;5027317;28;20049;-45
2023/10/28 09:20:38;;;;;;;12.30;3.67;;;;;;;11.18;83.32;97481.69;5024829;28;20051;-48
2023/10/28 09:23:05;;;;;;;11.98;3.50;;;;;;;11.28;81.96;97488.13;5019873;28;20117;-47
2023/10/28 09:25:34;;;;;;;5.68;3.28;;;;;;;11.35;82.71;97487.84;5022295;28;20103;-49
2023/10/28 09:28:07;;;;;;;9.48;5.22;;;;;;;11.39;81.94;97484.19;5048990;28;20053;-44
2023/10/28 09:30:47;;;;;;;7.43;3.53;;;;;;;11.39;82.75;97499.72;5023251;28;20112;-48
2023/10/28 09:33:15;;;;;;;5.70;3.22;;;;;;;11.41;82.78;97500.47;5020924;28;20052;-49
2023/10/28 09:35:45;;;;;;;6.10;3.35;;;;;;;11.43;82.38;97490.91;5008739;28;20051;-45
2023/10/28 09:38:12;;;;;;;6.80;3.40;;;;;;;11.49;81.97;97489.78;5004407;28;20145;-45
2023/10/28 09:40:40;;;;;;;5.50;3.50;;;;;;;11.52;81.62;97490.44;5051245;28;20049;-51
2023/10/28 09:43:07;;;;;;;10.25;3.35;;;;;;;11.57;82.19;97492.81;5027586;28;20558;-45
2023/10/28 09:45:35;;;;;;;5.90;3.35;;;;;;;11.64;81.89;97493.38;5027284;28;20046;-47
2023/10/28 09:48:12;;;;;;;5.90;3.17;;;;;;;11.70;81.72;97495.69;5026383;28;20518;-43
2023/10/28 09:50:48;;;;;;;3.85;2.28;;;;;;;11.73;81.89;97492.94;5002561;28;20088;-47
2023/10/28 09:53:30;;;;;;;4.45;2.47;;;;;;;11.81;81.75;97496.00;5024358;28;20049;-56
2023/10/28 09:55:57;;;;;;;7.93;4.35;;;;;;;11.94;81.33;97487.59;5026444;28;20050;-45
2023/10/28 10:06:36;;;;;;;8.90;1.98;;;;;;;12.63;81.54;97492.00;5041285;28;20383;-45
2023/10/28 10:09:06;;;;;;;6.80;1.30;;;;;;;12.73;80.33;97494.00;5011828;28;20053;-48
2023/10/28 10:11:33;;;;;;;3.22;0.88;;;;;;;12.84;80.36;97495.22;5006544;28;20073;-43
2023/10/28 10:14:09;;;;;;;4.47;0.85;;;;;;;12.95;80.21;97499.84;5012054;28;20140;-47
2023/10/28 10:19:28;;;;;;;3.65;1.00;;;;;;;13.00;79.31;97505.59;5020015;28;21003;-52
2023/10/28 10:21:56;;;;;;;9.85;1.35;;;;;;;13.10;79.39;97505.94;4998324;28;20046;-47
2023/10/28 10:24:24;;;;;;;5.00;1.15;;;;;;;13.19;79.29;97505.47;4998380;28;20531;-50
2023/10/28 10:26:56;;;;;;;3.95;1.00;;;;;;;13.25;79.77;97506.91;4990369;28;20047;-49
2023/10/28 10:29:26;;;;;;;3.75;0.80;;;;;;;13.24;79.08;97502.59;4990555;28;20042;-48
2023/10/28 10:31:55;;;;;;;6.13;1.35;;;;;;;13.28;78.87;97504.13;4987375;28;20053;-52
2023/10/28 10:34:37;;;;;;;6.03;0.93;;;;;;;13.36;78.90;97507.16;4994272;28;20760;-49
2023/10/28 10:37:04;;;;;;;5.38;0.55;;;;;;;13.47;77.96;97505.69;4992878;28;20077;-46
2023/10/28 10:39:43;;;;;;;4.38;0.88;;;;;;;13.60;78.15;97498.94;4993282;28;20056;-45
2023/10/28 10:42:12;;;;;;;3.67;0.90;;;;;;;13.72;78.07;97506.97;4989078;28;20046;-49
2023/10/28 10:44:39;;;;;;;5.22;1.25;;;;;;;13.76;77.36;97500.66;4989725;28;20046;-46
2023/10/28 10:47:08;;;;;;;3.80;0.70;;;;;;;13.73;76.45;97503.44;4990433;28;20058;-47
2023/10/28 10:49:38;;;;;;;;;;;;;;;13.66;76.50;97504.69;4991911;28;20050;-46
2023/10/28 10:52:06;;;;;;;4.65;0.75;;;;;;;13.81;76.06;97506.44;4987233;28;20402;-44
2023/10/28 10:54:35;;;;;;;2.50;0.88;;;;;;;13.85;76.81;97502.72;4993672;28;20535;-48
2023/10/28 10:57:03;;;;;;;6.50;1.05;;;;;;;13.90;75.72;97505.06;4990770;28;20065;-46
2023/10/28 10:59:33;;;;;;;8.23;0.88;;;;;;;13.97;75.85;97495.16;4993477;28;20117;-49
2023/10/28 11:02:01;;;;;;;4.38;0.82;;;;;;;14.01;75.93;97499.25;4993138;28;20054;-48
2023/10/28 11:04:29;;;;;;;3.65;2.00;;;;;;;14.16;76.26;97499.28;5004255;28;20481;-42
2023/10/28 11:06:56;;;;;;;5.55;1.20;;;;;;;14.31;76.62;97498.38;5002275;28;20048;-50
2023/10/28 11:09:23;;;;;;;5.68;1.25;;;;;;;14.40;75.94;97500.44;5002874;28;20046;-43
2023/10/28 11:11:50;;;;;;;5.95;2.10;;;;;;;14.42;75.36;97502.13;5001144;28;20385;-46
2023/10/28 11:14:17;;;;;;;3.65;1.58;;;;;;;14.46;74.60;97506.22;5002246;28;20056;-50
2023/10/28 11:16:46;;;;;;;6.97;1.25;;;;;;;14.58;74.50;97500.28;4999428;28;20058;-50
2023/10/28 11:19:12;;;;;;;6.97;1.38;;;;;;;14.74;75.02;97494.13;5000812;28;20662;-41
2023/10/28 11:21:40;;;;;;;11.88;1.45;;;;;;;14.84;74.76;97494.44;4999905;28;20054;-44
2023/10/28 11:24:09;;;;;;;6.55;0.73;;;;;;;14.86;74.72;97498.63;5002479;28;20049;-45
2023/10/28 11:26:37;;;;;;;3.25;1.30;;;;;;;14.83;73.42;97488.38;4999033;28;20319;-45
2023/10/28 11:29:06;;;;;;;5.13;1.02;;;;;;;14.79;73.85;97484.28;4995049;28;20056;-47
2023/10/28 11:31:34;;;;;;;4.65;1.15;;;;;;;14.79;74.01;97481.69;4980922;28;20061;-43
2023/10/28 11:34:04;;;;;;;2.70;0.98;;;;;;;14.83;73.61;97483.16;4982965;28;20058;-46
2023/10/28 11:36:33;;;;;;;3.88;0.82;;;;;;;14.83;73.15;97477.94;4986715;28;20073;-48
2023/10/28 11:39:09;;;;;;;3.90;0.73;;;;;;;14.85;73.34;97476.09;4987849;28;20186;-47
2023/10/28 11:41:36;;;;;;;7.38;0.82;;;;;;;14.84;73.20;97474.44;4981357;28;20062;-51
2023/10/28 11:44:03;;;;;;;4.63;0.90;;;;;;;14.85;73.43;97481.31;4972556;28;20061;-48
2023/10/28 11:46:31;;;;;;;4.85;0.80;;;;;;;14.87;73.15;97473.41;4984185;28;20046;-48